createdAt,value
2023-05-19T00:00:41.301Z,100189.22
2023-05-19T00:03:34.509Z,100195.41
2023-05-19T00:06:41.904Z,100185.19
2023-05-19T00:09:22.947Z,100182.59
2023-05-19T00:12:12.908Z,100178.25
2023-05-19T00:14:47.932Z,100179.03
2023-05-19T00:17:23.149Z,100176.34
2023-05-19T00:19:55.861Z,100172.06
2023-05-19T00:22:59.663Z,100180.78
2023-05-19T00:26:01.986Z,100183.50
2023-05-19T00:28:54.517Z,100189.69
2023-05-19T00:31:38.762Z,100184.56
2023-05-19T00:34:19.155Z,100182.91
2023-05-19T00:37:08.946Z,100176.97
2023-05-19T00:39:51.643Z,100177.97
2023-05-19T00:42:55.837Z,100183.31
2023-05-19T00:45:53.121Z,100181.63
2023-05-19T00:48:32.776Z,100177.38
2023-05-19T00:51:24.952Z,100173.09
2023-05-19T00:53:57.617Z,100179.28
2023-05-19T00:56:32.316Z,100180.34
2023-05-19T00:59:21.285Z,100166.72
2023-05-19T01:02:08.123Z,100173.78
2023-05-19T01:04:58.732Z,100165.44
2023-05-19T01:07:54.192Z,100168.16
2023-05-19T01:10:34.756Z,100154.44
2023-05-19T01:13:14.209Z,100157.03
2023-05-19T01:16:13.939Z,100157.94
2023-05-19T01:19:04.164Z,100163.38
2023-05-19T01:22:27.597Z,100159.25
2023-05-19T01:25:59.308Z,100154.47
2023-05-19T01:29:07.458Z,100145.94
2023-05-19T01:31:49.310Z,100145.94
2023-05-19T01:34:48.241Z,100146.91
2023-05-19T01:37:40.721Z,100152.16
2023-05-19T01:40:14.555Z,100148.81
2023-05-19T01:43:03.878Z,100152.28
2023-05-19T01:45:44.051Z,100149.81
2023-05-19T01:48:59.631Z,100152.63
2023-05-19T01:51:47.789Z,100152.88
2023-05-19T01:54:20.081Z,100150.34
2023-05-19T01:57:13.355Z,100154.88
2023-05-19T01:59:58.042Z,100157.44
2023-05-19T02:02:45.947Z,100158.34
2023-05-19T02:05:31.314Z,100155.91
2023-05-19T02:08:16.389Z,100169.75
2023-05-19T02:11:25.117Z,100165.66
2023-05-19T02:14:20.818Z,100164.25
2023-05-19T02:17:03.585Z,100166.31
2023-05-19T02:19:45.075Z,100164.09
2023-05-19T02:22:30.355Z,100166.13
2023-05-19T02:25:17.065Z,100169.81
2023-05-19T02:28:00.999Z,100171.03
2023-05-19T02:30:55.835Z,100176.00
2023-05-19T02:33:40.110Z,100175.50
2023-05-19T02:36:19.542Z,100174.06
2023-05-19T02:39:02.116Z,100172.63
2023-05-19T02:41:41.561Z,100167.97
2023-05-19T02:44:12.460Z,100168.13
2023-05-19T02:46:52.397Z,100163.19
2023-05-19T02:49:38.301Z,100166.75
2023-05-19T02:52:16.059Z,100151.31
2023-05-19T02:55:02.424Z,100159.19
2023-05-19T02:57:57.867Z,100165.41
2023-05-19T03:00:48.669Z,100161.16
2023-05-19T03:03:48.897Z,100154.41
2023-05-19T03:06:30.646Z,100152.00
2023-05-19T03:09:25.985Z,100152.38
2023-05-19T03:12:17.619Z,100158.69
2023-05-19T03:15:10.689Z,100161.56
2023-05-19T03:17:54.225Z,100161.91
2023-05-19T03:20:34.525Z,100157.88
2023-05-19T03:23:05.205Z,100158.69
2023-05-19T03:25:51.275Z,100162.06
2023-05-19T03:28:23.854Z,100155.91
2023-05-19T03:31:09.210Z,100161.22
2023-05-19T03:33:46.460Z,100153.53
2023-05-19T03:36:38.205Z,100159.41
2023-05-19T03:39:29.563Z,100155.09
2023-05-19T03:42:14.478Z,100157.66
2023-05-19T03:45:10.634Z,100161.75
2023-05-19T03:48:06.938Z,100160.88
2023-05-19T03:51:04.760Z,100165.16
2023-05-19T03:53:51.382Z,100168.38
2023-05-19T03:56:34.471Z,100166.72
2023-05-19T03:59:23.809Z,100177.03
2023-05-19T04:02:18.411Z,100173.78
2023-05-19T04:05:09.857Z,100180.91
2023-05-19T04:07:51.758Z,100177.56
2023-05-19T04:10:43.754Z,100175.94
2023-05-19T04:13:26.355Z,100176.78
2023-05-19T04:16:07.531Z,100169.81
2023-05-19T04:19:00.495Z,100167.94
2023-05-19T04:21:48.092Z,100173.94
2023-05-19T04:24:38.267Z,100169.59
2023-05-19T04:27:12.308Z,100170.38
2023-05-19T04:29:50.093Z,100171.88
2023-05-19T04:32:20.850Z,100175.09
2023-05-19T04:35:07.546Z,100179.09
2023-05-19T04:37:40.952Z,100179.72
2023-05-19T04:40:32.283Z,100182.97
2023-05-19T04:43:27.332Z,100173.22
2023-05-19T04:46:07.509Z,100178.97
2023-05-19T04:48:39.288Z,100177.78
2023-05-19T04:51:32.245Z,100186.13
2023-05-19T04:54:21.765Z,100179.69
2023-05-19T04:56:54.387Z,100186.22
2023-05-19T04:59:25.783Z,100179.03
2023-05-19T05:02:09.416Z,100182.22
2023-05-19T05:04:44.400Z,100180.25
2023-05-19T05:07:48.143Z,100172.16
2023-05-19T05:10:47.341Z,100169.38
2023-05-19T05:13:23.688Z,100174.09
2023-05-19T05:15:58.061Z,100172.13
2023-05-19T05:18:43.459Z,100177.03
2023-05-19T05:21:23.558Z,100172.34
2023-05-19T05:24:34.442Z,100169.00
2023-05-19T05:27:08.682Z,100165.88
2023-05-19T05:30:04.043Z,100170.66
2023-05-19T05:32:36.460Z,100167.69
2023-05-19T05:35:12.729Z,100167.19
2023-05-19T05:38:08.497Z,100171.81
2023-05-19T05:41:00.967Z,100172.97
2023-05-19T05:43:54.193Z,100166.31
2023-05-19T05:46:37.334Z,100147.09
2023-05-19T05:49:23.633Z,100155.75
2023-05-19T05:52:15.646Z,100170.81
2023-05-19T05:54:51.192Z,100166.84
2023-05-19T05:57:38.585Z,100160.28
2023-05-19T06:00:21.796Z,100168.63
2023-05-19T06:03:03.554Z,100167.81
2023-05-19T06:05:36.538Z,100165.97
2023-05-19T06:08:31.580Z,100165.59
2023-05-19T06:11:09.281Z,100156.28
2023-05-19T06:13:57.589Z,100154.81
2023-05-19T06:17:09.095Z,100156.91
2023-05-19T06:19:59.754Z,100157.28
2023-05-19T06:22:41.448Z,100158.66
2023-05-19T06:25:13.899Z,100152.53
2023-05-19T06:28:00.760Z,100158.91
2023-05-19T06:30:54.409Z,100153.84
2023-05-19T06:33:51.608Z,100152.13
2023-05-19T06:36:38.143Z,100146.22
2023-05-19T06:39:19.340Z,100152.53
2023-05-19T06:42:10.522Z,100156.34
2023-05-19T06:45:28.674Z,100153.22
2023-05-19T06:48:10.927Z,100163.81
2023-05-19T06:50:57.777Z,100155.66
2023-05-19T06:53:37.228Z,100154.44
2023-05-19T06:56:28.632Z,100153.16
2023-05-19T06:59:07.989Z,100146.69
2023-05-19T07:01:51.619Z,100145.44
2023-05-19T07:04:58.796Z,100152.69
2023-05-19T07:08:02.989Z,100154.19
2023-05-19T07:10:37.191Z,100150.47
2023-05-19T07:13:38.658Z,100144.16
2023-05-19T07:16:09.258Z,100130.03
2023-05-19T07:18:50.125Z,100131.50
2023-05-19T07:21:33.387Z,100127.63
2023-05-19T07:24:22.650Z,100123.88
2023-05-19T07:27:28.216Z,100118.50
2023-05-19T07:30:11.129Z,100112.19
2023-05-19T07:33:00.401Z,100107.72
2023-05-19T07:35:52.951Z,100108.44
2023-05-19T07:38:44.749Z,100101.56
2023-05-19T07:41:23.233Z,100096.06
2023-05-19T07:44:14.873Z,100088.78
2023-05-19T07:46:49.588Z,100092.56
2023-05-19T07:49:35.308Z,100096.34
2023-05-19T07:52:23.459Z,100084.53
2023-05-19T07:55:05.470Z,100082.13
2023-05-19T07:57:45.874Z,100080.53
2023-05-19T08:00:43.769Z,100084.00
2023-05-19T08:03:42.986Z,100079.44
2023-05-19T08:06:40.354Z,100076.56
2023-05-19T08:09:16.184Z,100085.94
2023-05-19T08:12:12.461Z,100081.75
2023-05-19T08:15:13.671Z,100069.13
2023-05-19T08:18:05.367Z,100072.56
2023-05-19T08:20:43.332Z,100077.44
2023-05-19T08:23:16.690Z,100070.16
2023-05-19T08:25:53.482Z,100081.84
2023-05-19T08:28:33.987Z,100071.81
2023-05-19T08:31:14.554Z,100066.88
2023-05-19T08:33:53.768Z,100079.41
2023-05-19T08:36:46.886Z,100074.91
2023-05-19T08:39:35.360Z,100077.03
2023-05-19T08:42:11.978Z,100072.97
2023-05-19T08:45:24.892Z,100072.00
2023-05-19T08:48:39.004Z,100065.84
2023-05-19T08:51:21.004Z,100061.03
2023-05-19T08:54:07.191Z,100058.09
2023-05-19T08:56:48.504Z,100053.25
2023-05-19T08:59:26.121Z,100042.53
2023-05-19T09:02:18.204Z,100038.56
2023-05-19T09:04:54.686Z,100036.50
2023-05-19T09:07:44.421Z,100030.16
2023-05-19T09:10:34.589Z,100031.16
2023-05-19T09:13:18.764Z,100037.13
2023-05-19T09:16:02.499Z,100042.84
2023-05-19T09:19:07.948Z,100032.03
2023-05-19T09:21:59.774Z,100024.69
2023-05-19T09:24:44.505Z,100027.44
2023-05-19T09:27:35.865Z,100024.34
2023-05-19T09:30:26.506Z,100021.78
2023-05-19T09:33:14.413Z,100021.25
2023-05-19T09:35:57.709Z,100010.78
2023-05-19T09:38:44.580Z,100019.19
2023-05-19T09:41:25.612Z,100017.72
2023-05-19T09:44:08.232Z,100010.88
2023-05-19T09:47:07.531Z,100014.28
2023-05-19T09:49:58.610Z,100016.59
2023-05-19T09:52:44.448Z,100007.56
2023-05-19T09:55:26.132Z,100004.63
2023-05-19T09:58:05.208Z,100011.59
2023-05-19T10:00:40.783Z,100003.59
2023-05-19T10:03:24.204Z,100004.59
2023-05-19T10:06:24.390Z,100007.22
2023-05-19T10:09:18.936Z,100001.97
2023-05-19T10:12:14.017Z,99999.28
2023-05-19T10:15:02.698Z,99989.25
2023-05-19T10:17:47.453Z,99982.94
2023-05-19T10:20:35.101Z,99979.78
2023-05-19T10:23:48.720Z,99986.00
2023-05-19T10:26:33.058Z,99978.69
2023-05-19T10:29:08.944Z,99972.44
2023-05-19T10:31:54.515Z,99974.66
2023-05-19T10:35:09.978Z,99972.59
2023-05-19T10:37:57.516Z,99967.94
2023-05-19T10:40:38.744Z,99970.16
2023-05-19T10:43:57.509Z,99972.78
2023-05-19T10:46:44.297Z,99971.94
2023-05-19T10:49:34.633Z,99972.19
2023-05-19T10:52:23.578Z,99973.06
2023-05-19T10:55:06.814Z,99966.97
2023-05-19T10:57:59.263Z,99977.63
2023-05-19T11:00:39.263Z,99979.28
2023-05-19T11:03:24.978Z,99977.22
2023-05-19T11:06:30.457Z,99975.44
2023-05-19T11:09:16.220Z,99976.41
2023-05-19T11:12:14.881Z,99975.56
2023-05-19T11:15:08.320Z,99969.00
2023-05-19T11:18:08.009Z,99951.53
2023-05-19T11:20:45.031Z,99945.16
2023-05-19T11:23:28.745Z,99942.22
2023-05-19T11:26:41.656Z,99942.03
2023-05-19T11:29:26.492Z,99937.81
2023-05-19T11:32:12.940Z,99934.25
2023-05-19T11:35:00.918Z,99940.41
2023-05-19T11:38:04.410Z,99937.09
2023-05-19T11:40:47.710Z,99929.19
2023-05-19T11:43:18.966Z,99932.56
2023-05-19T11:46:22.600Z,99933.38
2023-05-19T11:49:05.876Z,99923.16
2023-05-19T11:51:51.913Z,99925.44
2023-05-19T11:54:37.739Z,99924.84
2023-05-19T11:57:11.881Z,99922.75
2023-05-19T11:59:54.273Z,99918.97
2023-05-19T12:02:43.569Z,99916.94
2023-05-19T12:05:35.473Z,99918.06
2023-05-19T12:08:31.037Z,99913.56
2023-05-19T12:11:10.224Z,99920.19
2023-05-19T12:13:56.014Z,99919.19
2023-05-19T12:16:41.781Z,99911.56
2023-05-19T12:19:28.421Z,99920.00
2023-05-19T12:22:17.062Z,99918.13
2023-05-19T12:25:18.051Z,99911.63
2023-05-19T12:28:11.585Z,99925.38
2023-05-19T12:30:43.739Z,99920.44
2023-05-19T12:33:19.299Z,99920.59
2023-05-19T12:36:13.826Z,99915.78
2023-05-19T12:39:28.266Z,99921.78
2023-05-19T12:42:19.386Z,99921.34
2023-05-19T12:45:06.168Z,99924.78
2023-05-19T12:47:42.184Z,99919.13
2023-05-19T12:50:17.059Z,99914.75
2023-05-19T12:53:09.790Z,99918.91
2023-05-19T12:55:44.503Z,99920.00
2023-05-19T12:58:48.809Z,99930.09
2023-05-19T13:01:26.646Z,99925.81
2023-05-19T13:04:06.379Z,99920.88
2023-05-19T13:06:37.978Z,99919.50
2023-05-19T13:09:16.920Z,99923.81
2023-05-19T13:11:54.298Z,99920.19
2023-05-19T13:14:36.311Z,99916.66
2023-05-19T13:17:21.950Z,99922.41
2023-05-19T13:19:53.467Z,99913.66
2023-05-19T13:22:43.229Z,99905.59
2023-05-19T13:25:29.536Z,99907.41
2023-05-19T13:28:13.268Z,99899.25
2023-05-19T13:31:21.989Z,99904.56
2023-05-19T13:34:12.066Z,99902.97
2023-05-19T13:36:53.165Z,99903.66
2023-05-19T13:39:24.986Z,99912.03
2023-05-19T13:42:19.501Z,99904.81
2023-05-19T13:45:08.193Z,99903.78
2023-05-19T13:47:55.843Z,99903.75
2023-05-19T13:50:54.870Z,99897.09
2023-05-19T13:53:48.529Z,99899.72
2023-05-19T13:56:49.568Z,99902.41
2023-05-19T13:59:31.366Z,99895.78
2023-05-19T14:02:07.045Z,99895.97
2023-05-19T14:05:00.996Z,99897.59
2023-05-19T14:07:54.862Z,99895.19
2023-05-19T14:10:30.200Z,99879.75
2023-05-19T14:16:15.529Z,99891.34
2023-05-19T14:19:03.344Z,99883.34
2023-05-19T14:22:11.302Z,99886.41
2023-05-19T14:24:58.098Z,99885.78
2023-05-19T14:27:31.514Z,99891.72
2023-05-19T14:30:21.573Z,99880.44
2023-05-19T14:33:04.502Z,99890.25
2023-05-19T14:36:00.653Z,99889.66
2023-05-19T14:38:42.712Z,99896.28
2023-05-19T14:41:45.350Z,99890.88
2023-05-19T14:44:31.588Z,99886.38
2023-05-19T14:47:13.004Z,99872.75
2023-05-19T14:50:11.367Z,99873.06
2023-05-19T14:52:46.013Z,99870.06
2023-05-19T14:55:29.262Z,99874.59
2023-05-19T14:58:27.493Z,99876.19
2023-05-19T15:01:19.975Z,99878.06
2023-05-19T15:04:01.952Z,99873.25
2023-05-19T15:07:09.730Z,99872.59
2023-05-19T15:09:58.314Z,99871.00
2023-05-19T15:12:54.465Z,99870.97
2023-05-19T15:15:44.505Z,99863.94
2023-05-19T15:18:26.957Z,99861.69
2023-05-19T15:21:07.480Z,99869.41
2023-05-19T15:23:58.076Z,99874.06
2023-05-19T15:26:51.501Z,99866.28
2023-05-19T15:29:52.050Z,99872.72
2023-05-19T15:32:40.686Z,99865.91
2023-05-19T15:35:16.534Z,99866.44
2023-05-19T15:38:10.877Z,99859.53
2023-05-19T15:40:48.710Z,99862.03
2023-05-19T15:43:47.033Z,99852.31
2023-05-19T15:46:35.149Z,99862.56
2023-05-19T15:49:29.809Z,99860.13
2023-05-19T15:52:00.257Z,99852.09
2023-05-19T15:54:53.052Z,99849.31
2023-05-19T15:57:26.295Z,99858.41
2023-05-19T16:00:28.307Z,99851.28
2023-05-19T16:03:23.537Z,99850.41
2023-05-19T16:06:18.734Z,99834.59
2023-05-19T16:09:23.766Z,99839.13
2023-05-19T16:11:58.797Z,99831.88
2023-05-19T16:14:41.165Z,99833.41
2023-05-19T16:17:32.073Z,99830.78
2023-05-19T16:20:27.039Z,99824.66
2023-05-19T16:23:05.907Z,99837.22
2023-05-19T16:25:48.441Z,99827.34
2023-05-19T16:28:19.282Z,99818.66
2023-05-19T16:30:49.782Z,99821.56
2023-05-19T16:33:25.250Z,99819.06
2023-05-19T16:36:06.860Z,99817.25
2023-05-19T16:38:44.343Z,99822.00
2023-05-19T16:41:22.110Z,99814.25
2023-05-19T16:44:03.059Z,99812.69
2023-05-19T16:46:40.889Z,99814.50
2023-05-19T16:49:34.908Z,99811.88
2023-05-19T16:52:20.487Z,99810.81
2023-05-19T16:55:17.293Z,99806.41
2023-05-19T16:57:59.674Z,99812.22
2023-05-19T17:00:38.830Z,99810.28
2023-05-19T17:03:22.217Z,99808.06
2023-05-19T17:06:16.633Z,99799.91
2023-05-19T17:09:07.002Z,99805.16
2023-05-19T17:11:49.930Z,99802.41
2023-05-19T17:14:42.561Z,99794.50
2023-05-19T17:17:35.850Z,99793.69
2023-05-19T17:20:24.022Z,99797.56
2023-05-19T17:23:14.002Z,99791.88
2023-05-19T17:25:57.043Z,99804.31
2023-05-19T17:28:48.581Z,99799.91
2023-05-19T17:31:31.227Z,99797.69
2023-05-19T17:34:07.291Z,99802.50
2023-05-19T17:36:50.546Z,99792.31
2023-05-19T17:39:29.403Z,99796.28
2023-05-19T17:42:26.833Z,99790.09
2023-05-19T17:45:25.433Z,99800.31
2023-05-19T17:48:06.456Z,99798.38
2023-05-19T17:51:00.080Z,99803.34
2023-05-19T17:54:08.487Z,99795.75
2023-05-19T17:56:45.645Z,99798.91
2023-05-19T17:59:38.920Z,99802.47
2023-05-19T18:02:10.936Z,99805.63
2023-05-19T18:05:07.814Z,99804.41
2023-05-19T18:07:50.327Z,99805.91
2023-05-19T18:10:53.006Z,99807.13
2023-05-19T18:13:44.633Z,99805.69
2023-05-19T18:16:47.764Z,99804.59
2023-05-19T18:19:37.983Z,99801.53
2023-05-19T18:22:19.676Z,99800.69
2023-05-19T18:24:59.195Z,99805.50
2023-05-19T18:27:30.269Z,99800.53
2023-05-19T18:30:16.155Z,99800.09
2023-05-19T18:32:59.642Z,99797.16
2023-05-19T18:35:38.692Z,99794.41
2023-05-19T18:38:25.216Z,99797.41
2023-05-19T18:41:14.996Z,99798.03
2023-05-19T18:44:00.620Z,99797.91
2023-05-19T18:46:48.563Z,99794.09
2023-05-19T18:49:44.499Z,99800.91
2023-05-19T18:52:35.839Z,99797.53
2023-05-19T18:55:20.523Z,99798.31
2023-05-19T18:57:58.449Z,99796.47
2023-05-19T19:00:39.447Z,99795.19
2023-05-19T19:03:27.145Z,99807.00
2023-05-19T19:06:25.418Z,99797.28
2023-05-19T19:09:07.959Z,99802.06
2023-05-19T19:12:05.374Z,99809.84
2023-05-19T19:15:01.268Z,99808.44
2023-05-19T19:17:48.788Z,99813.13
2023-05-19T19:20:29.750Z,99812.47
2023-05-19T19:23:09.278Z,99806.28
2023-05-19T19:25:45.871Z,99811.44
2023-05-19T19:28:37.176Z,99812.63
2023-05-19T19:31:20.768Z,99816.75
2023-05-19T19:33:51.427Z,99826.72
2023-05-19T19:36:28.799Z,99822.69
2023-05-19T19:39:14.308Z,99826.47
2023-05-19T19:42:00.144Z,99822.88
2023-05-19T19:45:01.058Z,99821.88
2023-05-19T19:47:52.593Z,99839.78
2023-05-19T19:50:58.913Z,99830.88
2023-05-19T19:53:31.363Z,99834.97
2023-05-19T19:56:40.785Z,99838.94
2023-05-19T19:59:32.088Z,99827.19
2023-05-19T20:02:26.372Z,99836.28
2023-05-19T20:05:12.305Z,99834.97
2023-05-19T20:07:43.472Z,99830.28
2023-05-19T20:10:14.980Z,99838.69
2023-05-19T20:12:59.541Z,99835.59
2023-05-19T20:15:43.975Z,99834.13
2023-05-19T20:18:40.081Z,99835.53
2023-05-19T20:21:19.083Z,99838.78
2023-05-19T20:24:05.588Z,99835.78
2023-05-19T20:27:01.465Z,99838.00
2023-05-19T20:29:58.089Z,99824.94
2023-05-19T20:32:32.487Z,99837.16
2023-05-19T20:35:19.436Z,99838.31
2023-05-19T20:38:00.248Z,99833.50
2023-05-19T20:40:56.622Z,99828.84
2023-05-19T20:43:48.778Z,99839.69
2023-05-19T20:46:31.948Z,99832.38
2023-05-19T20:49:11.244Z,99835.31
2023-05-19T20:51:42.731Z,99836.16
2023-05-19T20:54:37.932Z,99839.91
2023-05-19T20:57:33.929Z,99838.63
2023-05-19T21:00:21.250Z,99830.31
2023-05-19T21:03:25.714Z,99841.69
2023-05-19T21:06:27.150Z,99833.88
2023-05-19T21:09:14.530Z,99824.50
2023-05-19T21:11:54.206Z,99834.06
2023-05-19T21:14:37.201Z,99834.19
2023-05-19T21:17:26.000Z,99829.47
2023-05-19T21:20:09.104Z,99834.69
2023-05-19T21:22:53.024Z,99833.03
2023-05-19T21:25:31.468Z,99830.63
2023-05-19T21:28:21.812Z,99830.75
2023-05-19T21:31:13.039Z,99835.31
2023-05-19T21:34:19.038Z,99832.94
2023-05-19T21:37:20.664Z,99839.28
2023-05-19T21:40:11.668Z,99838.63
2023-05-19T21:42:50.590Z,99838.75
2023-05-19T21:45:33.245Z,99835.28
2023-05-19T21:48:27.172Z,99841.72
2023-05-19T21:51:18.433Z,99841.72
2023-05-19T21:54:04.065Z,99839.50
2023-05-19T21:56:44.659Z,99842.34
2023-05-19T21:59:29.455Z,99843.16
2023-05-19T22:02:04.507Z,99845.03
2023-05-19T22:04:37.387Z,99839.81
2023-05-19T22:07:31.577Z,99845.31
2023-05-19T22:10:37.433Z,99840.53
2023-05-19T22:13:34.515Z,99839.25
2023-05-19T22:16:12.777Z,99837.06
2023-05-19T22:18:55.369Z,99840.59
2023-05-19T22:21:36.813Z,99839.13
2023-05-19T22:24:33.152Z,99836.09
2023-05-19T22:27:45.969Z,99830.97
2023-05-19T22:30:30.646Z,99831.19
2023-05-19T22:33:21.844Z,99832.97
2023-05-19T22:35:59.985Z,99839.91
2023-05-19T22:38:39.149Z,99847.00
2023-05-19T22:41:24.199Z,99848.00
2023-05-19T22:44:36.469Z,99845.69
2023-05-19T22:47:22.277Z,99841.53
2023-05-19T22:50:12.547Z,99839.75
2023-05-19T22:52:53.490Z,99839.66
2023-05-19T22:55:39.858Z,99836.16
2023-05-19T22:58:21.005Z,99837.91
2023-05-19T23:01:37.048Z,99833.81
2023-05-19T23:04:33.155Z,99833.19
2023-05-19T23:07:28.800Z,99835.97
2023-05-19T23:10:12.517Z,99836.72
2023-05-19T23:12:55.230Z,99836.72
2023-05-19T23:15:52.098Z,99829.66
2023-05-19T23:18:53.547Z,99833.28
2023-05-19T23:21:52.538Z,99831.72
2023-05-19T23:24:36.274Z,99824.88
2023-05-19T23:27:08.283Z,99810.69
2023-05-19T23:30:04.730Z,99815.31
2023-05-19T23:32:43.650Z,99812.88
2023-05-19T23:35:47.610Z,99813.81
2023-05-19T23:38:51.712Z,99820.16
2023-05-19T23:41:38.294Z,99815.03
2023-05-19T23:44:20.270Z,99814.41
2023-05-19T23:47:01.817Z,99811.06
2023-05-19T23:49:32.795Z,99808.56
2023-05-19T23:52:33.041Z,99807.00
2023-05-19T23:55:24.109Z,99801.88
2023-05-19T23:58:08.514Z,99799.53
